Time;durP1;ratioP1;P1;durP2;ratioP2;P2;SDS_P1;SDS_P2;PMS_P1;PMS_P2;Temp;Humidity;BMP_temperature;BMP_pressure;BME280_temperature;BME280_humidity;BME280_pressure;Samples;Min_cycle;Max_cycle;Signal;HPM_P1;HPM_P2
2024/02/13 00:01:09;;;;;;;2.42;0.32;;;7.20;1.00;;;;;;5156372;27;20471;-59
2024/02/13 00:03:37;;;;;;;1.20;0.30;;;7.20;1.00;;;;;;5157772;27;20507;-59
2024/02/13 00:06:06;;;;;;;1.00;0.20;;;7.40;99.90;;;;;;5142689;27;20430;-58
2024/02/13 00:08:34;;;;;;;2.10;0.40;;;7.40;99.90;;;;;;5156341;27;20448;-59
2024/02/13 00:11:06;;;;;;;1.77;0.20;;;7.40;99.90;;;;;;5142128;27;20445;-59
2024/02/13 00:13:34;;;;;;;0.90;0.30;;;7.60;99.90;;;;;;5147164;27;20429;-59
2024/02/13 00:16:03;;;;;;;0.60;0.35;;;7.60;99.90;;;;;;5146557;27;20448;-59
2024/02/13 00:18:33;;;;;;;1.55;0.30;;;7.60;99.90;;;;;;5139918;27;20435;-59
2024/02/13 00:21:00;;;;;;;0.50;0.20;;;7.70;99.90;;;;;;5157745;27;20742;-59
2024/02/13 00:23:28;;;;;;;0.90;0.30;;;7.70;8.40;;;;;;5139493;27;20452;-59
2024/02/13 00:25:55;;;;;;;0.90;0.20;;;7.80;99.90;;;;;;5155452;27;20755;-59
2024/02/13 00:28:22;;;;;;;1.30;0.30;;;7.70;99.90;;;;;;5147140;27;20683;-59
2024/02/13 00:30:50;;;;;;;0.57;0.30;;;7.70;99.90;;;;;;5140131;27;20437;-59
2024/02/13 00:33:19;;;;;;;1.57;0.30;;;7.60;99.90;;;;;;5146427;27;20866;-59
2024/02/13 00:35:46;;;;;;;1.20;0.30;;;7.50;99.90;;;;;;5141455;27;20773;-58
2024/02/13 00:38:13;;;;;;;0.85;0.30;;;7.40;1.00;;;;;;5161200;27;20417;-59
2024/02/13 00:40:41;;;;;;;0.70;0.30;;;7.60;99.90;;;;;;5158092;27;20422;-59
2024/02/13 00:43:08;;;;;;;0.93;0.30;;;7.70;99.90;;;;;;5155305;27;20504;-58
2024/02/13 00:45:35;;;;;;;1.55;0.40;;;7.70;99.90;;;;;;5142615;27;20512;-59
2024/02/13 00:48:02;;;;;;;1.20;0.30;;;7.80;99.90;;;;;;5152945;27;20512;-59
2024/02/13 00:50:29;;;;;;;2.55;0.30;;;7.80;99.90;;;;;;5150443;27;20455;-59
2024/02/13 00:52:55;;;;;;;1.70;0.30;;;7.70;99.90;;;;;;5155895;27;20504;-59
2024/02/13 00:55:22;;;;;;;0.50;0.20;;;7.70;99.90;;;;;;5140494;27;20506;-59
2024/02/13 00:57:51;;;;;;;1.58;0.30;;;7.70;1.00;;;;;;5139336;27;20434;-59
2024/02/13 01:00:18;;;;;;;0.60;0.30;;;7.70;1.00;;;;;;5140501;27;20867;-59
2024/02/13 01:02:45;;;;;;;1.10;0.30;;;7.90;44.40;;;;;;5136900;27;20733;-59
2024/02/13 01:05:12;;;;;;;1.90;0.35;;;7.90;99.90;;;;;;5124690;27;20899;-59
2024/02/13 01:07:39;;;;;;;0.57;0.20;;;7.90;99.90;;;;;;5141089;27;20854;-59
2024/02/13 01:10:07;;;;;;;1.50;0.32;;;7.80;99.90;;;;;;5124445;27;20773;-59
2024/02/13 01:12:34;;;;;;;1.93;0.40;;;7.90;1.00;;;;;;5158508;27;20492;-59
2024/02/13 01:15:03;;;;;;;0.90;0.30;;;8.00;99.90;;;;;;5161558;27;20438;-59
2024/02/13 01:17:30;;;;;;;0.90;0.30;;;8.00;99.90;;;;;;5161310;27;20409;-58
2024/02/13 01:19:58;;;;;;;1.17;0.30;;;8.00;99.90;;;;;;5140027;27;20779;-59
2024/02/13 01:22:25;;;;;;;0.80;0.30;;;8.00;99.90;;;;;;5139562;27;20430;-59
2024/02/13 01:24:52;;;;;;;0.90;0.22;;;8.10;99.90;;;;;;5139746;27;20430;-59
2024/02/13 01:27:20;;;;;;;2.45;0.40;;;7.90;99.90;;;;;;5138681;27;20433;-59
2024/02/13 01:29:47;;;;;;;1.20;0.40;;;7.70;99.90;;;;;;5150629;27;20420;-59
2024/02/13 01:32:16;;;;;;;1.20;0.40;;;7.50;99.90;;;;;;5156536;27;20472;-59
2024/02/13 01:34:43;;;;;;;0.80;0.30;;;7.40;99.90;;;;;;5141578;27;20774;-59
2024/02/13 01:37:10;;;;;;;0.80;0.30;;;7.30;99.90;;;;;;5153502;27;20495;-59
2024/02/13 01:39:38;;;;;;;2.30;0.30;;;7.30;1.00;;;;;;5137268;27;20418;-59
2024/02/13 01:42:06;;;;;;;0.70;0.30;;;7.30;1.00;;;;;;5137590;27;20517;-58
2024/02/13 01:44:32;;;;;;;1.00;0.30;;;7.20;1.00;;;;;;5139727;27;20495;-58
2024/02/13 01:47:01;;;;;;;1.60;0.40;;;7.20;1.00;;;;;;5139350;27;20482;-59
2024/02/13 01:49:30;;;;;;;0.77;0.30;;;7.10;1.00;;;;;;5138011;27;20441;-59
2024/02/13 01:51:59;;;;;;;2.80;0.30;;;7.10;1.00;;;;;;5139696;27;20521;-58
2024/02/13 01:54:29;;;;;;;1.20;0.30;;;7.20;1.00;;;;;;5160226;27;21035;-59
2024/02/13 01:56:56;;;;;;;0.90;0.30;;;7.20;1.00;;;;;;5160359;27;20464;-59
2024/02/13 01:59:25;;;;;;;1.70;0.30;;;7.20;99.90;;;;;;5142518;27;20704;-59
2024/02/13 02:01:54;;;;;;;0.70;0.32;;;7.30;1.00;;;;;;5138781;27;21048;-59
2024/02/13 02:04:22;;;;;;;0.73;0.40;;;7.30;1.00;;;;;;5138841;27;20411;-59
2024/02/13 02:06:50;;;;;;;1.10;0.30;;;7.30;99.90;;;;;;5138194;27;20878;-59
2024/02/13 02:09:18;;;;;;;1.23;0.38;;;7.30;99.90;;;;;;5134060;27;20475;-59
2024/02/13 02:11:46;;;;;;;3.63;0.40;;;7.30;99.90;;;;;;5138740;27;20421;-59
2024/02/13 02:14:13;;;;;;;1.00;0.30;;;7.20;99.90;;;;;;5138835;27;20422;-59
2024/02/13 02:16:40;;;;;;;0.80;0.30;;;7.20;99.90;;;;;;5139396;27;20422;-59
2024/02/13 02:19:07;;;;;;;0.93;0.40;;;7.20;1.00;;;;;;5138902;27;20756;-59
2024/02/13 02:21:34;;;;;;;1.30;0.30;;;7.10;1.00;;;;;;5139204;27;20430;-59
2024/02/13 02:24:03;;;;;;;2.10;0.30;;;7.10;1.00;;;;;;5138778;27;20458;-59
2024/02/13 02:26:31;;;;;;;1.70;0.30;;;7.10;1.00;;;;;;5138734;27;20512;-59
2024/02/13 02:28:58;;;;;;;1.63;0.30;;;7.00;1.00;;;;;;5142606;27;20421;-59
2024/02/13 02:31:25;;;;;;;1.30;0.40;;;7.10;1.00;;;;;;5154925;27;20810;-58
2024/02/13 02:33:52;;;;;;;2.28;0.40;;;7.10;99.90;;;;;;5137789;27;20479;-59
2024/02/13 02:36:19;;;;;;;0.82;0.30;;;6.90;99.90;;;;;;5138688;27;20410;-59
2024/02/13 02:38:46;;;;;;;1.30;0.40;;;6.80;1.00;;;;;;5138704;27;20419;-59
2024/02/13 02:41:14;;;;;;;1.27;0.40;;;6.70;1.00;;;;;;5138693;27;20487;-59
2024/02/13 02:43:43;;;;;;;0.70;0.35;;;6.70;1.00;;;;;;5157518;27;20431;-59
2024/02/13 02:46:12;;;;;;;0.90;0.40;;;6.60;99.90;;;;;;5144795;27;20521;-59
2024/02/13 02:48:39;;;;;;;0.80;0.40;;;6.60;99.90;;;;;;5137586;27;20471;-58
2024/02/13 02:51:06;;;;;;;1.13;0.40;;;6.50;1.00;;;;;;5137839;27;20446;-59
2024/02/13 02:53:33;;;;;;;0.70;0.40;;;6.50;1.00;;;;;;5138722;27;20422;-59
2024/02/13 02:56:00;;;;;;;0.77;0.40;;;6.50;99.90;;;;;;5155646;27;20413;-59
2024/02/13 02:58:27;;;;;;;2.53;0.32;;;6.50;99.90;;;;;;5156972;27;20424;-59
2024/02/13 03:00:55;;;;;;;2.00;0.45;;;6.40;99.90;;;;;;5157042;27;20425;-59
2024/02/13 03:03:22;;;;;;;0.90;0.30;;;6.30;99.90;;;;;;5130556;27;20435;-59
2024/02/13 03:05:50;;;;;;;0.60;0.30;;;6.30;99.90;;;;;;5137804;27;20531;-59
2024/02/13 03:08:17;;;;;;;1.70;0.40;;;6.10;99.90;;;;;;5137917;27;20429;-59
2024/02/13 03:10:44;;;;;;;1.30;0.40;;;6.10;99.90;;;;;;5137506;27;20426;-59
2024/02/13 03:13:12;;;;;;;0.80;0.30;;;6.20;99.90;;;;;;5153204;27;20424;-59
2024/02/13 03:15:39;;;;;;;0.90;0.30;;;6.10;99.90;;;;;;5158949;27;20416;-57
2024/02/13 03:18:08;;;;;;;1.80;0.40;;;6.10;99.90;;;;;;5153958;27;20426;-57
2024/02/13 03:20:35;;;;;;;3.00;0.30;;;6.10;99.90;;;;;;5155613;27;20408;-59
2024/02/13 03:23:03;;;;;;;1.00;0.40;;;6.10;99.90;;;;;;5152025;27;20418;-57
2024/02/13 03:25:30;;;;;;;2.17;0.38;;;6.20;99.90;;;;;;5137940;27;20427;-57
2024/02/13 03:27:56;;;;;;;2.50;0.30;;;6.30;99.90;;;;;;5149918;27;20431;-57
2024/02/13 03:30:23;;;;;;;0.52;0.30;;;6.40;99.90;;;;;;5158113;27;20524;-57
2024/02/13 03:32:50;;;;;;;0.68;0.30;;;6.50;99.90;;;;;;5158314;27;20519;-57
2024/02/13 03:35:19;;;;;;;1.10;0.20;;;6.60;99.90;;;;;;5157575;27;20464;-58
2024/02/13 03:37:46;;;;;;;0.40;0.20;;;6.70;99.90;;;;;;5158303;27;20766;-58
2024/02/13 03:40:16;;;;;;;0.70;0.20;;;6.70;99.90;;;;;;5156288;27;20802;-58
2024/02/13 03:42:43;;;;;;;0.50;0.20;;;6.90;99.90;;;;;;5137772;27;20505;-58
2024/02/13 03:45:10;;;;;;;0.43;0.30;;;6.90;99.90;;;;;;5131476;27;20432;-57
2024/02/13 03:47:37;;;;;;;1.40;0.20;;;6.90;99.90;;;;;;5138634;27;20766;-57
2024/02/13 03:50:06;;;;;;;1.00;0.30;;;6.90;99.90;;;;;;5151056;27;20531;-58
2024/02/13 03:52:36;;;;;;;0.68;0.30;;;6.90;99.90;;;;;;5155846;27;20817;-58
2024/02/13 03:55:04;;;;;;;0.65;0.30;;;6.90;99.90;;;;;;5157385;27;20460;-58
2024/02/13 03:57:31;;;;;;;0.60;0.30;;;6.90;99.90;;;;;;5141105;27;20436;-58
2024/02/13 03:59:58;;;;;;;0.60;0.30;;;6.80;99.90;;;;;;5135797;27;20518;-58
2024/02/13 04:02:27;;;;;;;0.73;0.30;;;6.90;99.90;;;;;;5135363;27;20511;-58
2024/02/13 04:04:54;;;;;;;3.28;0.40;;;6.90;99.90;;;;;;5136327;27;20509;-58
2024/02/13 04:07:21;;;;;;;0.60;0.30;;;7.00;99.90;;;;;;5135451;27;20440;-56
2024/02/13 04:09:50;;;;;;;1.63;0.30;;;7.00;99.90;;;;;;5157389;27;20424;-56
2024/02/13 04:12:17;;;;;;;1.00;0.30;;;7.10;99.90;;;;;;5139291;27;20426;-55
2024/02/13 04:14:44;;;;;;;1.35;0.40;;;7.20;99.90;;;;;;5148127;27;20421;-56
2024/02/13 04:17:11;;;;;;;1.97;0.40;;;7.20;99.90;;;;;;5158004;27;20796;-57
2024/02/13 04:19:39;;;;;;;0.90;0.30;;;7.10;99.90;;;;;;5156187;27;20489;-55
2024/02/13 04:22:06;;;;;;;1.00;0.30;;;7.00;99.90;;;;;;5157382;27;20472;-57
2024/02/13 04:24:33;;;;;;;0.45;0.20;;;6.90;99.90;;;;;;5158070;27;20759;-56
2024/02/13 04:27:01;;;;;;;0.60;0.30;;;6.80;99.90;;;;;;5148398;27;20493;-56
2024/02/13 04:29:28;;;;;;;0.70;0.30;;;6.60;99.90;;;;;;5137982;27;20454;-54
2024/02/13 04:31:55;;;;;;;1.52;0.30;;;6.40;99.90;;;;;;5157948;27;20714;-55
2024/02/13 04:34:22;;;;;;;1.73;0.30;;;6.40;99.90;;;;;;5145999;27;20418;-56
2024/02/13 04:36:49;;;;;;;1.20;0.30;;;6.40;99.90;;;;;;5136395;27;20419;-53
2024/02/13 04:39:16;;;;;;;1.00;0.30;;;6.40;99.90;;;;;;5136022;27;20479;-53
2024/02/13 04:41:44;;;;;;;1.00;0.30;;;6.40;99.90;;;;;;5132963;27;20493;-55
2024/02/13 04:44:13;;;;;;;1.33;0.20;;;6.30;99.90;;;;;;5135065;28;20410;-55
2024/02/13 04:46:41;;;;;;;1.20;0.30;;;6.40;99.90;;;;;;5134384;28;20434;-55
2024/02/13 04:49:08;;;;;;;0.50;0.30;;;6.40;99.90;;;;;;5135191;27;20421;-53
2024/02/13 04:51:35;;;;;;;0.70;0.30;;;6.40;99.90;;;;;;5135697;27;20418;-56
2024/02/13 04:54:05;;;;;;;1.33;0.30;;;6.50;99.90;;;;;;5136498;27;20414;-58
2024/02/13 04:56:33;;;;;;;1.00;0.30;;;6.50;99.90;;;;;;5135601;27;20422;-56
2024/02/13 04:59:02;;;;;;;1.70;0.30;;;6.50;99.90;;;;;;5135335;27;20418;-53
2024/02/13 05:01:30;;;;;;;0.50;0.30;;;6.40;99.90;;;;;;5117058;27;20432;-54
2024/02/13 05:09:27;;;;;;;1.77;0.22;;;6.20;99.90;;;;;;5145033;27;21047;-54
2024/02/13 05:11:54;;;;;;;1.60;0.30;;;6.90;99.90;;;;;;5141850;27;20749;-53
2024/02/13 05:14:21;;;;;;;0.60;0.30;;;6.80;99.90;;;;;;5136646;28;20497;-55
2024/02/13 05:16:49;;;;;;;3.27;0.30;;;6.80;99.90;;;;;;5136859;28;20452;-55
2024/02/13 05:19:16;;;;;;;0.88;0.30;;;6.80;99.90;;;;;;5154565;27;21035;-56
2024/02/13 05:21:43;;;;;;;0.90;0.30;;;6.70;99.90;;;;;;5126619;27;20428;-56
2024/02/13 05:24:10;;;;;;;1.30;0.35;;;6.70;99.90;;;;;;5123291;27;20723;-55
2024/02/13 05:26:37;;;;;;;0.60;0.30;;;6.70;99.90;;;;;;5139605;27;20422;-53
2024/02/13 05:29:04;;;;;;;1.08;0.30;;;6.70;99.90;;;;;;5132323;27;20418;-52
2024/02/13 05:31:31;;;;;;;0.63;0.30;;;6.60;99.90;;;;;;5148657;27;20495;-55
2024/02/13 05:33:59;;;;;;;0.60;0.30;;;6.50;99.90;;;;;;5143965;27;20427;-54
2024/02/13 05:36:27;;;;;;;1.00;0.30;;;6.40;99.90;;;;;;5139917;27;20414;-55
2024/02/13 05:38:54;;;;;;;0.70;0.30;;;6.60;99.90;;;;;;5139039;27;20521;-57
2024/02/13 05:41:20;;;;;;;1.27;0.32;;;6.60;99.90;;;;;;5148056;27;20448;-57
2024/02/13 05:43:47;;;;;;;0.90;0.30;;;6.60;99.90;;;;;;5160632;27;20432;-56
2024/02/13 05:46:14;;;;;;;1.50;0.38;;;6.70;99.90;;;;;;5133672;27;20427;-55
2024/02/13 05:48:42;;;;;;;2.30;0.40;;;6.60;99.90;;;;;;5139100;27;20430;-57
2024/02/13 05:51:14;;;;;;;1.40;0.25;;;6.50;99.90;;;;;;5111345;28;20477;-55
2024/02/13 05:53:41;;;;;;;0.98;0.40;;;6.30;99.90;;;;;;5118198;28;20427;-56
2024/02/13 05:56:09;;;;;;;1.30;0.38;;;6.20;99.90;;;;;;5117693;28;20424;-57
2024/02/13 05:58:36;;;;;;;1.98;0.30;;;6.10;99.90;;;;;;5116628;28;20502;-57
2024/02/13 06:01:03;;;;;;;0.90;0.40;;;6.10;99.90;;;;;;5117083;28;20424;-57
2024/02/13 06:03:32;;;;;;;0.60;0.40;;;6.00;99.90;;;;;;5118060;28;20859;-56
2024/02/13 06:05:59;;;;;;;1.17;0.37;;;6.00;99.90;;;;;;5118021;28;20431;-57
2024/02/13 06:08:28;;;;;;;2.40;0.40;;;6.00;99.90;;;;;;5107791;28;20420;-55
2024/02/13 06:10:55;;;;;;;1.40;0.40;;;6.10;99.90;;;;;;5118396;28;20439;-56
2024/02/13 06:13:22;;;;;;;1.00;0.30;;;6.10;99.90;;;;;;5125172;27;20438;-56
2024/02/13 06:15:49;;;;;;;1.10;0.50;;;6.10;99.90;;;;;;5119439;27;20442;-57
2024/02/13 06:18:16;;;;;;;1.40;0.40;;;6.00;99.90;;;;;;5118266;28;20818;-58
2024/02/13 06:20:43;;;;;;;0.60;0.30;;;6.00;99.90;;;;;;5118879;28;20507;-58
2024/02/13 06:23:11;;;;;;;0.90;0.40;;;6.20;99.90;;;;;;5118301;28;20416;-58
2024/02/13 06:25:39;;;;;;;2.47;0.40;;;6.10;99.90;;;;;;5117764;28;20939;-57
2024/02/13 06:28:07;;;;;;;2.03;0.50;;;6.10;99.90;;;;;;5118320;28;20489;-58
2024/02/13 06:30:34;;;;;;;0.60;0.30;;;6.10;99.90;;;;;;5121293;27;20446;-57
2024/02/13 06:33:01;;;;;;;0.70;0.38;;;6.10;99.90;;;;;;5117794;28;20435;-58
2024/02/13 06:35:28;;;;;;;0.68;0.40;;;6.20;99.90;;;;;;5117512;28;20818;-58
2024/02/13 06:37:58;;;;;;;1.52;0.40;;;6.70;99.90;;;;;;5118331;27;20416;-58
2024/02/13 06:40:25;;;;;;;2.33;0.40;;;6.70;99.90;;;;;;5116767;28;20494;-57
2024/02/13 06:42:53;;;;;;;2.10;0.40;;;6.70;99.90;;;;;;5118069;28;20435;-58
2024/02/13 06:45:21;;;;;;;1.10;0.40;;;6.60;99.90;;;;;;5117888;28;20428;-58
2024/02/13 06:47:48;;;;;;;1.20;0.40;;;6.50;99.90;;;;;;5113847;28;20440;-58
2024/02/13 06:50:16;;;;;;;1.55;0.57;;;6.30;99.90;;;;;;5143637;27;20481;-58
2024/02/13 06:52:43;;;;;;;2.13;0.60;;;6.20;99.90;;;;;;5159964;27;20531;-58
2024/02/13 06:55:10;;;;;;;1.20;0.30;;;6.10;99.90;;;;;;5158511;27;20416;-58
2024/02/13 06:57:38;;;;;;;0.77;0.40;;;6.00;99.90;;;;;;5158574;27;20452;-58
2024/02/13 07:00:08;;;;;;;1.70;0.60;;;6.00;99.90;;;;;;5157233;27;20818;-58
2024/02/13 07:02:36;;;;;;;1.50;0.50;;;6.00;99.90;;;;;;5158363;27;20699;-58
2024/02/13 07:05:04;;;;;;;0.85;0.40;;;6.10;99.90;;;;;;5157645;27;20533;-58
2024/02/13 07:07:31;;;;;;;2.00;0.57;;;6.10;99.90;;;;;;5157805;27;20490;-57
2024/02/13 07:09:57;;;;;;;2.38;0.60;;;6.10;99.90;;;;;;5158386;27;20477;-58
2024/02/13 07:12:24;;;;;;;1.80;0.50;;;6.10;99.90;;;;;;5138747;27;20454;-58
2024/02/13 07:14:52;;;;;;;1.00;0.40;;;6.10;99.90;;;;;;5137839;27;20808;-58
2024/02/13 07:17:20;;;;;;;1.13;0.40;;;6.20;99.90;;;;;;5137947;27;20788;-58
2024/02/13 07:19:47;;;;;;;1.90;0.50;;;6.20;99.90;;;;;;5137943;27;20754;-58
2024/02/13 07:22:14;;;;;;;2.45;0.50;;;6.20;99.90;;;;;;5136887;27;20422;-58
2024/02/13 07:24:41;;;;;;;1.42;0.40;;;6.30;99.90;;;;;;5137182;27;20411;-58
2024/02/13 07:27:09;;;;;;;0.90;0.40;;;6.40;99.90;;;;;;5135531;27;20758;-58
2024/02/13 07:29:39;;;;;;;0.90;0.40;;;6.50;99.90;;;;;;5135509;27;20406;-57
2024/02/13 07:32:07;;;;;;;1.00;0.40;;;6.70;99.90;;;;;;5134587;27;20863;-58
2024/02/13 07:34:38;;;;;;;1.70;0.40;;;6.80;99.90;;;;;;5134715;27;20458;-57
2024/02/13 07:37:07;;;;;;;1.60;0.50;;;6.80;99.90;;;;;;5133316;27;20422;-57
2024/02/13 07:39:34;;;;;;;0.77;0.40;;;6.70;99.90;;;;;;5129645;27;20434;-58
2024/02/13 07:42:01;;;;;;;1.98;0.60;;;6.60;99.90;;;;;;5131261;27;20443;-58
2024/02/13 07:44:29;;;;;;;0.82;0.40;;;6.60;99.90;;;;;;5128516;27;20506;-57
2024/02/13 07:46:57;;;;;;;1.80;0.50;;;6.70;99.90;;;;;;5128381;27;20426;-58
2024/02/13 07:49:24;;;;;;;1.60;0.40;;;6.70;99.90;;;;;;5131801;27;20441;-58
2024/02/13 07:51:52;;;;;;;1.40;0.50;;;6.80;99.90;;;;;;5130285;27;20435;-59
2024/02/13 07:54:21;;;;;;;1.65;0.40;;;6.90;99.90;;;;;;5131486;27;20545;-58
2024/02/13 07:56:48;;;;;;;1.13;0.40;;;7.00;99.90;;;;;;5130984;27;20473;-58
2024/02/13 07:59:15;;;;;;;1.65;0.40;;;7.10;99.90;;;;;;5127665;27;20506;-59
2024/02/13 08:01:43;;;;;;;0.90;0.30;;;7.10;99.90;;;;;;5139389;27;20876;-59
2024/02/13 08:04:10;;;;;;;2.90;0.40;;;7.20;99.90;;;;;;5140138;27;20928;-59
2024/02/13 08:06:38;;;;;;;6.80;0.40;;;7.30;99.90;;;;;;5124489;27;21104;-59
2024/02/13 08:09:06;;;;;;;2.10;0.40;;;7.40;99.90;;;;;;5128516;27;20678;-58
2024/02/13 08:11:34;;;;;;;1.00;0.40;;;7.60;99.90;;;;;;5130869;27;20810;-59
2024/02/13 08:14:01;;;;;;;2.03;0.40;;;7.70;99.90;;;;;;5130640;27;20493;-59
2024/02/13 08:16:29;;;;;;;3.53;0.30;;;7.60;99.90;;;;;;5144236;27;20513;-58
2024/02/13 08:18:56;;;;;;;1.40;0.30;;;7.70;99.90;;;;;;5136489;27;20514;-58
2024/02/13 08:21:23;;;;;;;1.90;0.40;;;7.70;99.90;;;;;;5132030;28;20444;-59
2024/02/13 08:23:50;;;;;;;1.70;0.50;;;7.80;99.90;;;;;;5129234;28;20435;-59
2024/02/13 08:26:18;;;;;;;2.40;0.40;;;7.80;99.90;;;;;;5126927;28;20422;-59
2024/02/13 08:28:47;;;;;;;0.90;0.30;;;7.70;99.90;;;;;;5132627;28;20458;-59
2024/02/13 08:31:14;;;;;;;1.13;0.30;;;7.80;99.90;;;;;;5132174;28;20430;-59
2024/02/13 08:33:44;;;;;;;0.90;0.30;;;7.90;99.90;;;;;;5133640;28;20527;-59
2024/02/13 08:36:11;;;;;;;1.38;0.40;;;7.90;99.90;;;;;;5134323;28;20418;-59
2024/02/13 08:38:41;;;;;;;1.95;0.30;;;7.90;99.90;;;;;;5131658;28;20490;-58
2024/02/13 08:41:08;;;;;;;0.98;0.40;;;8.10;99.90;;;;;;5133615;28;20426;-59
2024/02/13 08:43:37;;;;;;;0.50;0.30;;;8.30;99.90;;;;;;5132121;28;20442;-59
2024/02/13 08:46:04;;;;;;;1.00;0.30;;;8.70;99.90;;;;;;5133901;28;20706;-58
2024/02/13 08:48:33;;;;;;;0.60;0.30;;;8.60;99.90;;;;;;5131325;28;20469;-59
2024/02/13 08:51:00;;;;;;;1.88;0.30;;;8.80;99.90;;;;;;5130731;28;20433;-59
2024/02/13 08:53:27;;;;;;;1.40;0.30;;;8.90;99.90;;;;;;5135847;27;20735;-59
2024/02/13 08:55:55;;;;;;;0.70;0.30;;;8.80;99.90;;;;;;5138448;27;20422;-60
2024/02/13 08:58:22;;;;;;;0.90;0.30;;;8.90;99.90;;;;;;5138265;27;20441;-59
2024/02/13 09:00:51;;;;;;;1.60;0.30;;;9.00;99.90;;;;;;5136114;27;20479;-59
2024/02/13 09:03:18;;;;;;;3.03;0.30;;;9.10;99.90;;;;;;5136164;27;20499;-59
2024/02/13 09:05:45;;;;;;;2.70;0.40;;;9.00;99.90;;;;;;5135045;27;20434;-59
2024/02/13 09:08:12;;;;;;;0.90;0.30;;;9.10;99.90;;;;;;5131037;27;20495;-59
2024/02/13 09:10:39;;;;;;;0.60;0.20;;;9.20;99.90;;;;;;5134608;27;20486;-60
2024/02/13 09:13:06;;;;;;;0.80;0.30;;;9.40;99.90;;;;;;5135273;27;20854;-59
2024/02/13 09:15:33;;;;;;;0.80;0.22;;;9.50;99.90;;;;;;5137425;27;20728;-59
2024/02/13 09:18:01;;;;;;;1.40;0.30;;;9.50;99.90;;;;;;5138927;27;20431;-59
2024/02/13 09:20:28;;;;;;;0.60;0.30;;;9.50;99.90;;;;;;5136248;27;20792;-59
2024/02/13 09:22:56;;;;;;;0.40;0.20;;;9.20;99.90;;;;;;5133618;27;20517;-59
2024/02/13 09:25:23;;;;;;;1.00;0.30;;;9.30;99.90;;;;;;5132524;27;20430;-59
2024/02/13 09:27:51;;;;;;;0.60;0.30;;;9.20;99.90;;;;;;5135891;27;20431;-59
2024/02/13 09:30:18;;;;;;;0.50;0.20;;;9.20;99.90;;;;;;5136051;27;20434;-59
2024/02/13 09:32:47;;;;;;;0.47;0.20;;;9.20;99.90;;;;;;5136406;27;20511;-60
2024/02/13 09:35:15;;;;;;;0.60;0.20;;;9.30;99.90;;;;;;5134540;27;20440;-60
2024/02/13 09:37:42;;;;;;;0.50;0.20;;;9.50;99.90;;;;;;5133323;27;20441;-59
2024/02/13 09:40:13;;;;;;;0.40;0.20;;;9.60;99.90;;;;;;5135970;27;20495;-59
2024/02/13 09:42:41;;;;;;;0.70;0.30;;;9.60;99.90;;;;;;5129077;27;20557;-59
2024/02/13 09:45:09;;;;;;;1.42;0.30;;;9.50;99.90;;;;;;5128844;27;20442;-59
2024/02/13 09:47:38;;;;;;;0.40;0.20;;;9.50;99.90;;;;;;5132474;27;20513;-59
2024/02/13 09:50:09;;;;;;;0.80;0.30;;;9.70;99.90;;;;;;5134966;27;20430;-59
2024/02/13 09:52:42;;;;;;;0.60;0.35;;;9.80;99.90;;;;;;5135070;27;20438;-59
2024/02/13 09:55:10;;;;;;;0.90;0.40;;;9.80;99.90;;;;;;5135135;27;20495;-59
2024/02/13 09:57:40;;;;;;;0.70;0.25;;;10.00;99.90;;;;;;5131704;27;20490;-59
2024/02/13 10:00:09;;;;;;;1.90;0.30;;;10.10;99.90;;;;;;5133932;27;20923;-59
2024/02/13 10:02:39;;;;;;;0.90;0.30;;;10.00;99.90;;;;;;5115704;27;20527;-59
2024/02/13 10:05:10;;;;;;;0.65;0.30;;;9.80;99.90;;;;;;5133636;27;20436;-59
2024/02/13 10:07:39;;;;;;;1.30;0.30;;;9.70;99.90;;;;;;5134864;27;20434;-59
2024/02/13 10:10:10;;;;;;;0.80;0.30;;;9.70;99.90;;;;;;5137339;27;20499;-59
2024/02/13 10:12:39;;;;;;;3.00;0.40;;;9.70;99.90;;;;;;5134167;27;20498;-59
2024/02/13 10:15:09;;;;;;;0.70;0.20;;;9.80;99.90;;;;;;5135983;27;20503;-59
2024/02/13 10:17:36;;;;;;;0.40;0.20;;;9.60;99.90;;;;;;5135574;27;20433;-59
2024/02/13 10:20:03;;;;;;;0.70;0.30;;;9.40;99.90;;;;;;5138458;27;20490;-59
2024/02/13 10:22:30;;;;;;;0.70;0.20;;;9.40;99.90;;;;;;5133727;27;20445;-59
2024/02/13 10:25:00;;;;;;;1.40;0.20;;;9.30;99.90;;;;;;5132967;27;20539;-59
2024/02/13 10:27:28;;;;;;;0.60;0.30;;;9.30;99.90;;;;;;5134688;27;20452;-59
2024/02/13 10:29:55;;;;;;;1.80;0.30;;;9.40;99.90;;;;;;5119957;27;20769;-59
2024/02/13 10:32:23;;;;;;;1.00;0.20;;;9.40;99.90;;;;;;5132023;27;20487;-59
2024/02/13 10:34:50;;;;;;;0.70;0.30;;;9.30;99.90;;;;;;5134598;27;20434;-59
2024/02/13 10:37:18;;;;;;;2.10;0.30;;;9.20;99.90;;;;;;5126957;27;20430;-59
2024/02/13 10:39:47;;;;;;;0.63;0.30;;;9.50;99.90;;;;;;5133643;27;20542;-59
2024/02/13 10:42:20;;;;;;;0.70;0.30;;;9.50;99.90;;;;;;5133854;27;20434;-59
2024/02/13 10:44:51;;;;;;;1.10;0.30;;;9.40;99.90;;;;;;5125238;27;20998;-59
2024/02/13 10:47:23;;;;;;;1.20;0.30;;;9.40;99.90;;;;;;5132842;27;20415;-59
2024/02/13 10:49:53;;;;;;;0.40;0.25;;;9.40;99.90;;;;;;5131766;27;20831;-59
2024/02/13 10:52:21;;;;;;;0.75;0.25;;;9.40;99.90;;;;;;5136231;27;20441;-59
2024/02/13 10:54:50;;;;;;;0.80;0.40;;;9.60;99.90;;;;;;5137113;27;20433;-60
2024/02/13 10:57:19;;;;;;;0.68;0.30;;;9.80;99.90;;;;;;5133198;27;20441;-60
2024/02/13 10:59:47;;;;;;;0.57;0.30;;;10.00;99.90;;;;;;5130030;27;20501;-59
2024/02/13 11:02:15;;;;;;;0.70;0.30;;;10.00;99.90;;;;;;5134291;27;20437;-60
2024/02/13 11:04:46;;;;;;;2.90;0.30;;;10.10;99.90;;;;;;5131782;27;20514;-60
2024/02/13 11:07:14;;;;;;;0.90;0.30;;;10.30;99.90;;;;;;5132693;27;20421;-60
2024/02/13 11:09:42;;;;;;;0.40;0.20;;;10.40;99.90;;;;;;5133972;27;20489;-60
2024/02/13 11:12:10;;;;;;;0.55;0.30;;;10.30;99.90;;;;;;5130926;27;20434;-60
2024/02/13 11:14:38;;;;;;;1.00;0.20;;;10.20;99.90;;;;;;5136742;27;20411;-60
2024/02/13 11:17:09;;;;;;;1.02;0.20;;;10.20;99.90;;;;;;5134044;27;20443;-60
2024/02/13 11:19:41;;;;;;;2.20;0.30;;;10.40;99.90;;;;;;5136080;27;20449;-60
2024/02/13 11:22:12;;;;;;;0.50;0.20;;;10.40;99.90;;;;;;5133368;27;20466;-59
2024/02/13 11:24:43;;;;;;;171.70;14.80;;;10.50;99.90;;;;;;5136267;27;20466;-60
2024/02/13 11:27:17;;;;;;;26.63;2.88;;;10.50;99.90;;;;;;5135795;27;20438;-60
2024/02/13 11:29:58;;;;;;;13.57;0.80;;;10.60;99.90;;;;;;5135919;27;20426;-60
2024/02/13 11:32:28;;;;;;;1.30;0.38;;;10.60;99.90;;;;;;5135010;27;20477;-59
2024/02/13 11:34:58;;;;;;;1.00;0.30;;;10.90;99.90;;;;;;5131680;27;20736;-59
2024/02/13 11:37:28;;;;;;;0.70;0.28;;;11.00;99.90;;;;;;5132842;27;20533;-60
2024/02/13 11:39:57;;;;;;;1.55;0.20;;;11.10;99.90;;;;;;5131656;27;20434;-60
2024/02/13 11:42:25;;;;;;;1.95;0.20;;;11.10;99.90;;;;;;5133308;27;20469;-61
2024/02/13 11:44:56;;;;;;;1.00;0.20;;;11.50;99.90;;;;;;5136959;27;20422;-59
2024/02/13 11:47:24;;;;;;;0.60;0.30;;;11.90;99.90;;;;;;5136473;27;20418;-59
2024/02/13 11:49:52;;;;;;;0.40;0.20;;;11.90;99.90;;;;;;5136785;27;20609;-59
2024/02/13 11:52:21;;;;;;;1.30;0.20;;;11.90;99.90;;;;;;5136359;27;20422;-59
2024/02/13 11:54:49;;;;;;;0.40;0.20;;;12.10;99.90;;;;;;5135232;27;20438;-60
2024/02/13 11:57:17;;;;;;;0.40;0.20;;;12.10;99.90;;;;;;5135576;27;20430;-60
2024/02/13 11:59:44;;;;;;;0.90;0.20;;;11.90;99.90;;;;;;5134576;27;20415;-60
2024/02/13 12:02:14;;;;;;;1.50;0.20;;;11.80;99.90;;;;;;5134016;27;20420;-59
2024/02/13 12:04:43;;;;;;;0.80;0.20;;;12.20;99.90;;;;;;5134622;27;20488;-59
2024/02/13 12:07:11;;;;;;;0.40;0.20;;;12.20;99.90;;;;;;5135078;27;20430;-59
2024/02/13 12:09:40;;;;;;;0.40;0.20;;;12.30;99.90;;;;;;5135262;27;20458;-59
2024/02/13 12:12:11;;;;;;;1.00;0.20;;;12.40;99.90;;;;;;5135426;27;20480;-60
2024/02/13 12:14:39;;;;;;;1.00;0.20;;;12.50;99.90;;;;;;5136955;27;20410;-60
2024/02/13 12:17:07;;;;;;;0.50;0.20;;;12.40;99.90;;;;;;5136615;27;20436;-60
2024/02/13 12:19:38;;;;;;;0.40;0.20;;;12.20;99.90;;;;;;5136852;27;20422;-60
2024/02/13 12:22:09;;;;;;;0.80;0.20;;;12.10;99.90;;;;;;5137266;28;20802;-60
2024/02/13 12:24:39;;;;;;;1.27;0.40;;;12.00;99.90;;;;;;5135782;28;20739;-60
2024/02/13 12:27:09;;;;;;;0.40;0.20;;;11.80;99.90;;;;;;5135128;27;20429;-60
2024/02/13 12:29:39;;;;;;;0.40;0.20;;;11.70;99.90;;;;;;5140075;27;20855;-60
2024/02/13 12:32:08;;;;;;;0.40;0.20;;;11.60;99.90;;;;;;5141236;27;20422;-60
2024/02/13 12:34:37;;;;;;;0.90;0.20;;;11.90;99.90;;;;;;5140825;27;20414;-60
2024/02/13 12:37:08;;;;;;;0.60;0.20;;;11.80;99.90;;;;;;5135165;27;20432;-60
2024/02/13 12:39:36;;;;;;;0.52;0.20;;;11.80;99.90;;;;;;5136966;27;20407;-61
2024/02/13 12:42:10;;;;;;;0.80;0.20;;;11.60;99.90;;;;;;5140433;27;20724;-61
2024/02/13 12:44:38;;;;;;;0.40;0.20;;;11.70;99.90;;;;;;5139355;27;20426;-61
2024/02/13 12:47:07;;;;;;;0.50;0.20;;;11.80;99.90;;;;;;5140069;27;20422;-62
2024/02/13 12:49:35;;;;;;;1.30;0.20;;;11.90;99.90;;;;;;5138264;27;20808;-61
2024/02/13 12:52:05;;;;;;;0.40;0.20;;;12.00;99.90;;;;;;5131247;27;20426;-61
2024/02/13 12:54:33;;;;;;;0.40;0.20;;;12.20;99.90;;;;;;5140132;27;20520;-60
2024/02/13 12:57:00;;;;;;;0.40;0.20;;;12.40;99.90;;;;;;5138995;27;20501;-60
2024/02/13 12:59:27;;;;;;;0.40;0.20;;;12.50;99.90;;;;;;5138242;27;20491;-60
2024/02/13 13:01:58;;;;;;;0.40;0.20;;;12.50;99.90;;;;;;5139338;27;20619;-60
2024/02/13 13:04:28;;;;;;;0.70;0.20;;;12.60;99.90;;;;;;5138594;27;21014;-60